createdAt,value
2024-01-06T00:00:27.454Z,7.90
2024-01-06T00:02:54.908Z,8.00
2024-01-06T00:05:22.660Z,8.00
2024-01-06T00:07:50.621Z,8.00
2024-01-06T00:10:18.666Z,7.90
2024-01-06T00:12:46.458Z,7.90
2024-01-06T00:15:13.685Z,7.90
2024-01-06T00:17:40.873Z,7.90
2024-01-06T00:20:08.879Z,8.00
2024-01-06T00:22:36.832Z,8.00
2024-01-06T00:25:04.051Z,8.00
2024-01-06T00:27:31.478Z,8.00
2024-01-06T00:29:58.429Z,8.00
2024-01-06T00:32:25.430Z,8.00
2024-01-06T00:34:52.520Z,8.00
2024-01-06T00:37:19.441Z,7.90
2024-01-06T00:39:46.677Z,7.90
2024-01-06T00:42:14.077Z,7.90
2024-01-06T00:44:41.076Z,7.90
2024-01-06T00:47:08.221Z,7.90
2024-01-06T00:49:35.886Z,8.00
2024-01-06T00:52:03.111Z,8.00
2024-01-06T00:54:30.444Z,8.00
2024-01-06T00:56:58.609Z,8.00
2024-01-06T00:59:26.444Z,8.00
2024-01-06T01:01:53.798Z,8.00
2024-01-06T01:04:21.010Z,8.00
2024-01-06T01:06:48.397Z,8.00
2024-01-06T01:09:15.873Z,7.90
2024-01-06T01:11:43.475Z,7.90
2024-01-06T01:14:10.743Z,7.90
2024-01-06T01:16:38.177Z,8.00
2024-01-06T01:19:05.138Z,7.90
2024-01-06T01:21:32.418Z,7.90
2024-01-06T01:23:59.607Z,8.00
2024-01-06T01:26:26.741Z,7.90
2024-01-06T01:28:53.688Z,8.00
2024-01-06T01:31:20.937Z,8.00
2024-01-06T01:33:48.299Z,7.90
2024-01-06T01:36:15.724Z,7.90
2024-01-06T01:38:42.694Z,7.90
2024-01-06T01:41:09.751Z,7.90
2024-01-06T01:43:36.842Z,7.90
2024-01-06T01:46:04.030Z,8.00
2024-01-06T01:48:32.388Z,7.90
2024-01-06T01:50:59.625Z,8.00
2024-01-06T01:53:27.910Z,8.00
2024-01-06T01:55:55.669Z,8.00
2024-01-06T01:58:22.906Z,7.90
2024-01-06T02:00:49.877Z,7.90
2024-01-06T02:03:17.859Z,7.90
2024-01-06T02:05:45.144Z,8.00
2024-01-06T02:08:12.254Z,8.00
2024-01-06T02:10:39.497Z,7.90
2024-01-06T02:13:13.335Z,7.90
2024-01-06T02:15:40.980Z,7.90
2024-01-06T02:18:08.843Z,7.80
2024-01-06T02:20:36.147Z,7.80
2024-01-06T02:23:03.189Z,7.70
2024-01-06T02:25:30.557Z,7.70
2024-01-06T02:27:57.973Z,7.80
2024-01-06T02:30:25.290Z,7.90
2024-01-06T02:32:52.856Z,7.90
2024-01-06T02:35:21.850Z,7.90
2024-01-06T02:37:49.083Z,7.90
2024-01-06T02:40:16.149Z,7.80
2024-01-06T02:42:43.275Z,7.80
2024-01-06T02:45:11.055Z,7.90
2024-01-06T02:47:38.676Z,7.90
2024-01-06T02:50:06.752Z,7.90
2024-01-06T02:52:33.813Z,7.90
2024-01-06T02:55:02.125Z,7.90
2024-01-06T02:57:30.630Z,8.00
2024-01-06T02:59:57.659Z,8.00
2024-01-06T03:02:25.285Z,8.00
2024-01-06T03:04:52.394Z,8.00
2024-01-06T03:07:19.394Z,8.10
2024-01-06T03:09:46.508Z,8.10
2024-01-06T03:12:14.085Z,8.10
2024-01-06T03:14:41.364Z,8.10
2024-01-06T03:17:08.379Z,8.10
2024-01-06T03:19:35.643Z,8.10
2024-01-06T03:22:02.863Z,8.10
2024-01-06T03:24:29.901Z,8.10
2024-01-06T03:26:57.038Z,8.10
2024-01-06T03:29:24.045Z,8.10
2024-01-06T03:31:51.249Z,8.10
2024-01-06T03:34:19.426Z,8.10
2024-01-06T03:36:46.515Z,8.20
2024-01-06T03:39:15.105Z,8.10
2024-01-06T03:41:42.169Z,8.10
2024-01-06T03:44:09.199Z,8.20
2024-01-06T03:46:36.992Z,8.20
2024-01-06T03:49:05.154Z,8.30
2024-01-06T03:51:32.540Z,8.30
2024-01-06T03:53:59.810Z,8.30
2024-01-06T03:56:26.994Z,8.30
2024-01-06T03:58:53.887Z,8.30
2024-01-06T04:01:22.141Z,8.30
2024-01-06T04:03:49.311Z,8.30
2024-01-06T04:06:16.324Z,8.20
2024-01-06T04:08:43.396Z,8.30
2024-01-06T04:11:10.392Z,8.30
2024-01-06T04:13:37.432Z,8.30
2024-01-06T04:16:04.709Z,8.30
2024-01-06T04:18:32.286Z,8.30
2024-01-06T04:20:59.493Z,8.20
2024-01-06T04:23:26.787Z,8.10
2024-01-06T04:25:54.055Z,8.10
2024-01-06T04:28:21.003Z,8.20
2024-01-06T04:30:48.073Z,8.20
2024-01-06T04:33:15.382Z,8.20
2024-01-06T04:35:42.598Z,8.20
2024-01-06T04:38:10.273Z,8.20
2024-01-06T04:40:37.427Z,8.10
2024-01-06T04:43:04.809Z,7.90
2024-01-06T04:45:32.103Z,8.00
2024-01-06T04:47:59.440Z,8.10
2024-01-06T04:50:26.463Z,8.00
2024-01-06T04:52:53.498Z,8.00
2024-01-06T04:55:20.581Z,7.90
2024-01-06T04:57:47.757Z,7.90
2024-01-06T05:00:15.144Z,7.70
2024-01-06T05:02:42.829Z,7.50
2024-01-06T05:05:10.130Z,7.20
2024-01-06T05:07:37.490Z,7.10
2024-01-06T05:10:04.943Z,7.10
2024-01-06T05:12:31.951Z,6.90
2024-01-06T05:14:59.173Z,6.80
2024-01-06T05:17:26.752Z,6.80
2024-01-06T05:19:53.911Z,6.70
2024-01-06T05:22:20.949Z,6.70
2024-01-06T05:24:48.273Z,6.80
2024-01-06T05:27:15.548Z,6.90
2024-01-06T05:29:42.465Z,7.00
2024-01-06T05:32:10.374Z,7.10
2024-01-06T05:34:37.629Z,6.90
2024-01-06T05:37:04.942Z,6.80
2024-01-06T05:39:32.014Z,6.90
2024-01-06T05:41:59.081Z,6.90
2024-01-06T05:44:26.179Z,6.90
2024-01-06T05:46:53.127Z,6.80
2024-01-06T05:49:20.207Z,6.70
2024-01-06T05:51:47.634Z,6.60
2024-01-06T05:54:15.151Z,6.60
2024-01-06T05:56:42.504Z,6.50
2024-01-06T05:59:09.572Z,6.50
2024-01-06T06:01:36.608Z,6.60
2024-01-06T06:04:03.952Z,6.70
2024-01-06T06:06:31.651Z,6.80
2024-01-06T06:08:58.946Z,6.90
2024-01-06T06:11:26.063Z,6.90
2024-01-06T06:13:53.005Z,6.90
2024-01-06T06:16:20.209Z,6.90
2024-01-06T06:18:47.420Z,6.80
2024-01-06T06:21:14.724Z,6.70
2024-01-06T06:23:41.860Z,6.60
2024-01-06T06:26:10.784Z,6.60
2024-01-06T06:28:37.811Z,6.50
2024-01-06T06:31:05.350Z,6.50
2024-01-06T06:33:34.557Z,6.50
2024-01-06T06:36:02.774Z,6.50
2024-01-06T06:38:30.819Z,6.40
2024-01-06T06:40:58.096Z,6.40
2024-01-06T06:43:25.096Z,6.50
2024-01-06T06:45:52.170Z,6.50
2024-01-06T06:48:19.212Z,6.50
2024-01-06T06:50:46.221Z,6.50
2024-01-06T06:53:14.019Z,6.50
2024-01-06T06:55:42.161Z,6.60
2024-01-06T06:58:09.444Z,6.60
2024-01-06T07:00:36.569Z,6.60
2024-01-06T07:03:04.134Z,6.60
2024-01-06T07:05:31.525Z,6.60
2024-01-06T07:08:01.654Z,6.80
2024-01-06T07:10:28.916Z,6.80
2024-01-06T07:12:56.139Z,6.90
2024-01-06T07:15:23.322Z,7.00
2024-01-06T07:17:50.777Z,6.90
2024-01-06T07:20:18.119Z,6.90
2024-01-06T07:22:45.230Z,6.90
2024-01-06T07:25:12.270Z,6.80
2024-01-06T07:27:39.819Z,6.80
2024-01-06T07:30:09.395Z,6.80
2024-01-06T07:32:36.550Z,6.60
2024-01-06T07:35:07.386Z,6.50
2024-01-06T07:37:35.357Z,6.50
2024-01-06T07:40:02.648Z,6.40
2024-01-06T07:42:29.782Z,6.40
2024-01-06T07:44:56.786Z,6.40
2024-01-06T07:47:23.938Z,6.30
2024-01-06T07:49:50.926Z,6.30
2024-01-06T07:52:18.137Z,6.20
2024-01-06T07:54:45.480Z,6.20
2024-01-06T07:57:13.188Z,6.30
2024-01-06T07:59:40.410Z,6.20
2024-01-06T08:02:08.186Z,6.20
2024-01-06T08:04:35.389Z,6.20
2024-01-06T08:07:02.799Z,6.20
2024-01-06T08:09:29.837Z,6.20
2024-01-06T08:11:57.568Z,6.20
2024-01-06T08:14:24.623Z,6.30
2024-01-06T08:16:51.720Z,6.20
2024-01-06T08:19:18.892Z,6.10
2024-01-06T08:21:46.344Z,6.10
2024-01-06T08:24:13.804Z,6.10
2024-01-06T08:26:40.750Z,6.10
2024-01-06T08:29:07.857Z,6.20
2024-01-06T08:31:34.856Z,6.20
2024-01-06T08:34:02.068Z,6.20
2024-01-06T08:36:29.392Z,6.30
2024-01-06T08:38:56.360Z,6.30
2024-01-06T08:41:23.399Z,6.30
2024-01-06T08:43:50.420Z,6.30
2024-01-06T08:46:18.222Z,6.40
2024-01-06T08:48:45.556Z,6.40
2024-01-06T08:51:12.927Z,6.50
2024-01-06T08:53:41.155Z,6.50
2024-01-06T08:56:08.311Z,6.50
2024-01-06T08:58:35.202Z,6.50
2024-01-06T09:01:02.344Z,6.60
2024-01-06T09:03:29.542Z,6.50
2024-01-06T09:06:01.539Z,6.40
2024-01-06T09:08:28.675Z,6.40
2024-01-06T09:10:58.365Z,6.50
2024-01-06T09:13:26.141Z,6.60
2024-01-06T09:15:53.427Z,6.60
2024-01-06T09:18:20.892Z,6.60
2024-01-06T09:20:51.024Z,6.70
2024-01-06T09:23:19.016Z,6.60
2024-01-06T09:25:47.112Z,6.60
2024-01-06T09:28:14.151Z,6.50
2024-01-06T09:30:41.164Z,6.50
2024-01-06T09:33:09.323Z,6.50
2024-01-06T09:35:36.610Z,6.50
2024-01-06T09:38:03.618Z,6.50
2024-01-06T09:40:32.943Z,6.20
2024-01-06T09:43:00.225Z,6.10
2024-01-06T09:45:27.338Z,6.00
2024-01-06T09:47:56.322Z,5.90
2024-01-06T09:50:23.770Z,5.90
2024-01-06T09:52:55.350Z,5.80
2024-01-06T09:55:30.136Z,5.80
2024-01-06T09:57:57.313Z,5.80
2024-01-06T10:00:24.308Z,5.70
2024-01-06T10:02:55.990Z,5.60
2024-01-06T10:05:23.445Z,5.60
2024-01-06T10:07:50.825Z,5.60
2024-01-06T10:10:17.697Z,5.60
2024-01-06T10:12:45.051Z,5.70
2024-01-06T10:15:13.394Z,5.60
2024-01-06T10:17:41.468Z,5.50
2024-01-06T10:20:13.488Z,5.50
2024-01-06T10:22:43.872Z,5.50
2024-01-06T10:25:12.287Z,5.50
2024-01-06T10:27:41.223Z,5.50
2024-01-06T10:30:09.679Z,5.60
2024-01-06T10:32:38.017Z,5.50
2024-01-06T10:35:07.983Z,5.50
2024-01-06T10:37:35.395Z,5.40
2024-01-06T10:40:10.121Z,5.40
2024-01-06T10:42:40.746Z,5.40
2024-01-06T10:45:13.143Z,5.40
2024-01-06T10:47:43.780Z,5.30
2024-01-06T10:50:11.510Z,5.40
2024-01-06T10:52:44.479Z,5.40
2024-01-06T10:55:12.295Z,5.40
2024-01-06T10:57:39.895Z,5.40
2024-01-06T11:00:07.577Z,5.30
2024-01-06T11:02:35.874Z,5.30
2024-01-06T11:05:08.952Z,5.30
2024-01-06T11:07:36.936Z,5.30
2024-01-06T11:10:13.359Z,5.30
2024-01-06T11:12:40.281Z,5.40
2024-01-06T11:15:07.718Z,5.50
2024-01-06T11:17:55.113Z,5.50
2024-01-06T11:20:23.856Z,5.50
2024-01-06T11:22:51.996Z,5.50
2024-01-06T11:25:23.436Z,5.50
2024-01-06T11:27:51.685Z,5.50
2024-01-06T11:30:25.977Z,5.50
2024-01-06T11:33:00.015Z,5.50
2024-01-06T11:35:31.018Z,5.50
2024-01-06T11:38:05.278Z,5.60
2024-01-06T11:40:37.251Z,5.60
2024-01-06T11:43:06.615Z,5.50
2024-01-06T11:45:34.964Z,5.50
2024-01-06T11:48:05.892Z,5.50
2024-01-06T11:50:38.533Z,5.50
2024-01-06T11:53:07.055Z,5.30
2024-01-06T11:55:35.770Z,5.30
2024-01-06T11:58:05.004Z,5.30
2024-01-06T12:00:33.685Z,5.30
2024-01-06T12:03:02.650Z,5.30
2024-01-06T12:05:30.106Z,5.20
2024-01-06T12:08:01.875Z,5.20
2024-01-06T12:10:30.637Z,5.30
2024-01-06T12:13:10.101Z,5.20
2024-01-06T12:15:40.720Z,5.20
2024-01-06T12:18:08.747Z,5.20
2024-01-06T12:20:35.954Z,5.20
2024-01-06T12:23:07.410Z,5.30
2024-01-06T12:25:40.216Z,5.30
2024-01-06T12:28:08.532Z,5.40
2024-01-06T12:30:36.681Z,5.50
2024-01-06T12:33:04.532Z,5.50
2024-01-06T12:35:31.700Z,5.50
2024-01-06T12:37:58.741Z,5.60
2024-01-06T12:40:25.813Z,5.50
2024-01-06T12:42:52.854Z,5.50
2024-01-06T12:45:20.030Z,5.50
2024-01-06T12:47:47.462Z,5.50
2024-01-06T12:50:15.814Z,5.50
2024-01-06T12:52:43.289Z,5.40
2024-01-06T12:55:10.651Z,5.40
2024-01-06T12:57:38.034Z,5.40
2024-01-06T13:00:07.405Z,5.40
2024-01-06T13:02:34.680Z,5.40
2024-01-06T13:05:02.049Z,5.50
2024-01-06T13:07:29.145Z,5.40
2024-01-06T13:09:56.309Z,5.40
2024-01-06T13:12:25.138Z,5.40
2024-01-06T13:14:52.231Z,5.40
2024-01-06T13:17:19.526Z,5.30
2024-01-06T13:19:46.900Z,5.40
2024-01-06T13:22:15.922Z,5.40
2024-01-06T13:24:43.304Z,5.30
2024-01-06T13:27:10.388Z,5.40
2024-01-06T13:29:37.390Z,5.40
2024-01-06T13:32:04.774Z,5.50
2024-01-06T13:34:32.117Z,5.40
2024-01-06T13:36:59.279Z,5.40
2024-01-06T13:39:26.334Z,5.50
2024-01-06T13:41:53.411Z,5.40
2024-01-06T13:44:21.504Z,5.50
2024-01-06T13:46:50.237Z,5.50
2024-01-06T13:49:17.965Z,5.40
2024-01-06T13:51:45.385Z,5.40
2024-01-06T13:54:12.614Z,5.30
2024-01-06T13:56:39.849Z,5.40
2024-01-06T13:59:06.877Z,5.30
2024-01-06T14:01:34.495Z,5.30
2024-01-06T14:04:02.202Z,5.20
2024-01-06T14:06:32.662Z,5.30
2024-01-06T14:09:01.127Z,5.30
2024-01-06T14:11:28.660Z,5.30
2024-01-06T14:13:55.914Z,5.30
2024-01-06T14:16:23.151Z,5.40
2024-01-06T14:18:50.390Z,5.40
2024-01-06T14:21:20.579Z,5.50
2024-01-06T14:23:49.942Z,5.50
2024-01-06T14:26:24.994Z,5.50
2024-01-06T14:28:52.421Z,5.40
2024-01-06T14:31:19.863Z,5.50
2024-01-06T14:33:47.429Z,5.50
2024-01-06T14:36:14.931Z,5.50
2024-01-06T14:38:42.273Z,5.50
2024-01-06T14:41:09.221Z,5.60
2024-01-06T14:43:36.293Z,5.50
2024-01-06T14:46:03.721Z,5.50
2024-01-06T14:48:31.312Z,5.50
2024-01-06T14:50:58.628Z,5.50
2024-01-06T14:53:25.709Z,5.50
2024-01-06T14:55:52.742Z,5.50
2024-01-06T14:58:19.844Z,5.50
2024-01-06T15:00:46.873Z,5.50
2024-01-06T15:03:13.927Z,5.40
2024-01-06T15:05:41.004Z,5.30
2024-01-06T15:08:08.291Z,5.30
2024-01-06T15:10:35.459Z,5.40
2024-01-06T15:13:04.642Z,5.40
2024-01-06T15:15:31.805Z,5.30
2024-01-06T15:17:59.404Z,5.30
2024-01-06T15:20:26.582Z,5.30
2024-01-06T15:22:53.820Z,5.20
2024-01-06T15:25:21.321Z,5.20
2024-01-06T15:27:48.686Z,5.20
2024-01-06T15:30:17.279Z,5.30
2024-01-06T15:32:44.922Z,5.30
2024-01-06T15:35:12.306Z,5.20
2024-01-06T15:37:39.573Z,5.10
2024-01-06T15:40:08.694Z,5.10
2024-01-06T15:42:36.233Z,5.10
2024-01-06T15:45:03.736Z,5.20
2024-01-06T15:47:30.918Z,5.20
2024-01-06T15:49:58.208Z,5.20
2024-01-06T15:52:25.500Z,5.30
2024-01-06T15:54:53.386Z,5.30
2024-01-06T15:57:20.578Z,5.30
2024-01-06T15:59:47.856Z,5.20
2024-01-06T16:02:15.032Z,5.20
2024-01-06T16:04:42.251Z,5.30
2024-01-06T16:07:10.627Z,5.30
2024-01-06T16:09:37.975Z,5.40
2024-01-06T16:12:07.052Z,5.40
2024-01-06T16:14:36.329Z,5.40
2024-01-06T16:17:04.906Z,5.40
2024-01-06T16:19:32.256Z,5.40
2024-01-06T16:22:10.778Z,5.30
2024-01-06T16:24:44.508Z,5.30
2024-01-06T16:27:11.852Z,5.30
2024-01-06T16:29:39.953Z,5.20
2024-01-06T16:32:07.432Z,5.20
2024-01-06T16:34:35.062Z,5.10
2024-01-06T16:37:02.527Z,5.20
2024-01-06T16:39:32.491Z,5.30
2024-01-06T16:42:00.077Z,5.20
2024-01-06T16:44:28.550Z,5.20
2024-01-06T16:46:59.316Z,5.20
2024-01-06T16:49:30.845Z,5.00
2024-01-06T16:51:59.102Z,4.90
2024-01-06T16:54:26.362Z,4.90
2024-01-06T16:56:53.510Z,4.90
2024-01-06T16:59:20.716Z,5.00
2024-01-06T17:01:48.085Z,5.00
2024-01-06T17:04:15.300Z,5.00
2024-01-06T17:06:42.473Z,5.10
2024-01-06T17:09:09.490Z,5.00
2024-01-06T17:11:36.553Z,5.00
2024-01-06T17:14:03.842Z,5.00
2024-01-06T17:16:31.206Z,5.00
2024-01-06T17:18:58.379Z,5.00
2024-01-06T17:21:25.773Z,5.00
2024-01-06T17:23:54.023Z,4.90
2024-01-06T17:26:21.230Z,4.90
2024-01-06T17:28:48.498Z,4.80
2024-01-06T17:31:15.635Z,4.70
2024-01-06T17:33:43.004Z,4.70
2024-01-06T17:36:10.384Z,4.70
2024-01-06T17:38:37.437Z,4.80
2024-01-06T17:41:04.879Z,4.80
2024-01-06T17:43:31.894Z,4.90
2024-01-06T17:45:58.979Z,4.80
2024-01-06T17:48:26.111Z,4.80
2024-01-06T17:50:53.463Z,4.70
2024-01-06T17:53:21.431Z,4.60
2024-01-06T17:55:48.497Z,4.60
2024-01-06T17:58:15.690Z,4.60
2024-01-06T18:00:42.585Z,4.50
2024-01-06T18:03:09.488Z,4.40
2024-01-06T18:05:36.745Z,4.30
2024-01-06T18:08:04.189Z,4.30
2024-01-06T18:10:31.120Z,4.30
2024-01-06T18:12:58.144Z,4.20
2024-01-06T18:15:25.306Z,4.20
2024-01-06T18:17:52.307Z,4.20
2024-01-06T18:20:22.535Z,4.10
2024-01-06T18:22:50.085Z,4.10
2024-01-06T18:25:17.089Z,4.00
2024-01-06T18:27:46.163Z,3.90
2024-01-06T18:30:13.593Z,4.00
2024-01-06T18:32:40.638Z,4.00
2024-01-06T18:35:08.156Z,4.00
2024-01-06T18:37:35.201Z,4.00
2024-01-06T18:40:05.326Z,3.90
2024-01-06T18:42:34.128Z,3.90
2024-01-06T18:45:01.853Z,4.00
2024-01-06T18:47:29.816Z,3.90
2024-01-06T18:49:57.904Z,3.90
2024-01-06T18:52:25.325Z,3.90
2024-01-06T18:54:52.377Z,4.00
2024-01-06T18:57:19.679Z,4.00
2024-01-06T18:59:46.903Z,4.10
2024-01-06T19:02:15.591Z,4.20
2024-01-06T19:04:44.668Z,4.30
2024-01-06T19:07:11.763Z,4.20
2024-01-06T19:09:38.739Z,4.30
2024-01-06T19:12:06.824Z,4.30
2024-01-06T19:14:36.922Z,4.30
2024-01-06T19:17:04.422Z,4.20
2024-01-06T19:19:31.737Z,4.10
2024-01-06T19:21:59.160Z,3.90
2024-01-06T19:24:32.525Z,3.90
2024-01-06T19:27:03.695Z,3.90
2024-01-06T19:29:32.308Z,3.80
2024-01-06T19:31:59.325Z,3.80
2024-01-06T19:34:26.474Z,3.70
2024-01-06T19:36:53.838Z,3.70
2024-01-06T19:39:20.994Z,3.70
2024-01-06T19:41:48.511Z,3.70
2024-01-06T19:44:16.671Z,3.70
2024-01-06T19:46:44.148Z,3.60
2024-01-06T19:49:11.267Z,3.70
2024-01-06T19:51:38.679Z,3.70
2024-01-06T19:54:07.025Z,3.80
2024-01-06T19:56:35.129Z,3.70
2024-01-06T19:59:02.154Z,3.70
2024-01-06T20:01:29.245Z,3.60
2024-01-06T20:03:56.412Z,3.60
2024-01-06T20:06:23.785Z,3.60
2024-01-06T20:08:50.711Z,3.50
2024-01-06T20:11:17.861Z,3.50
2024-01-06T20:13:44.830Z,3.50
2024-01-06T20:16:12.270Z,3.40
2024-01-06T20:18:39.447Z,3.40
2024-01-06T20:21:06.336Z,3.40
2024-01-06T20:23:33.450Z,3.40
2024-01-06T20:26:01.274Z,3.40
2024-01-06T20:28:28.552Z,3.40
2024-01-06T20:30:55.608Z,3.40
2024-01-06T20:33:23.085Z,3.40
2024-01-06T20:35:51.211Z,3.20
2024-01-06T20:38:18.933Z,3.20
2024-01-06T20:40:46.892Z,3.10
2024-01-06T20:43:15.028Z,3.00
2024-01-06T20:45:42.522Z,3.10
2024-01-06T20:48:10.145Z,3.10
2024-01-06T20:50:37.853Z,3.00
2024-01-06T20:53:05.214Z,3.10
2024-01-06T20:55:32.517Z,3.10
2024-01-06T20:57:59.663Z,3.00
2024-01-06T21:00:26.800Z,3.00
2024-01-06T21:02:54.094Z,2.90
2024-01-06T21:05:21.130Z,2.90
2024-01-06T21:07:48.691Z,3.00
2024-01-06T21:10:16.199Z,3.00
2024-01-06T21:12:44.242Z,3.00
2024-01-06T21:15:11.619Z,3.00
2024-01-06T21:17:39.855Z,3.00
2024-01-06T21:20:08.519Z,2.90
2024-01-06T21:22:35.738Z,3.00
2024-01-06T21:25:05.753Z,2.90
2024-01-06T21:27:35.144Z,3.00
2024-01-06T21:30:05.855Z,3.00
2024-01-06T21:32:33.756Z,2.90
2024-01-06T21:35:03.107Z,2.80
2024-01-06T21:37:30.531Z,2.80
2024-01-06T21:39:58.696Z,2.80
2024-01-06T21:42:25.668Z,2.80
2024-01-06T21:44:52.549Z,2.80
2024-01-06T21:47:19.668Z,2.70
2024-01-06T21:49:47.615Z,2.70
2024-01-06T21:52:14.639Z,2.70
2024-01-06T21:54:41.794Z,2.70
2024-01-06T21:57:09.048Z,2.70
2024-01-06T21:59:36.583Z,2.70
2024-01-06T22:02:04.532Z,2.70
2024-01-06T22:04:32.466Z,2.70
2024-01-06T22:07:00.004Z,2.60
2024-01-06T22:09:27.235Z,2.60
2024-01-06T22:11:54.463Z,2.60
2024-01-06T22:14:23.667Z,2.70
2024-01-06T22:16:51.024Z,2.60
2024-01-06T22:19:17.933Z,2.60
2024-01-06T22:21:47.962Z,2.50
2024-01-06T22:24:17.379Z,2.50
2024-01-06T22:26:46.208Z,2.40
2024-01-06T22:29:13.484Z,2.50
2024-01-06T22:31:44.446Z,2.40
2024-01-06T22:34:13.932Z,2.30
2024-01-06T22:36:41.604Z,2.40
2024-01-06T22:39:08.901Z,2.40
2024-01-06T22:41:36.122Z,2.40
2024-01-06T22:44:03.242Z,2.40
2024-01-06T22:46:30.812Z,2.40
2024-01-06T22:48:58.162Z,2.40
2024-01-06T22:51:25.109Z,2.30
2024-01-06T22:53:52.263Z,2.30
2024-01-06T22:56:19.202Z,2.30
2024-01-06T22:58:46.319Z,2.30
2024-01-06T23:01:14.329Z,2.30
2024-01-06T23:03:42.936Z,2.30
2024-01-06T23:06:10.358Z,2.30
2024-01-06T23:08:37.378Z,2.40
2024-01-06T23:11:09.838Z,2.30
2024-01-06T23:13:36.741Z,2.40
2024-01-06T23:16:03.957Z,2.30
2024-01-06T23:18:31.371Z,2.40
2024-01-06T23:20:58.943Z,2.50
2024-01-06T23:23:26.870Z,2.60
2024-01-06T23:25:54.032Z,2.60
2024-01-06T23:28:20.922Z,2.60
2024-01-06T23:30:48.966Z,2.60
2024-01-06T23:33:15.991Z,2.70
2024-01-06T23:35:43.512Z,2.60
2024-01-06T23:38:10.784Z,2.60
2024-01-06T23:40:37.860Z,2.60
2024-01-06T23:43:08.133Z,2.70
2024-01-06T23:45:36.472Z,2.90
2024-01-06T23:48:03.774Z,3.00
2024-01-06T23:50:31.770Z,3.10
2024-01-06T23:52:58.861Z,3.20
2024-01-06T23:55:25.989Z,3.10
2024-01-06T23:57:52.925Z,3.00
